Details From LPLA - LAJES
To CYYT - ST JOHNS INTL
Flight Number -
Tags generated
Created
Modified
Stats Distance 1,241 nm / 2,299 km
Max Altitude 34,000 ft / 10,363 m
Waypoints 9
Social Downloads 0
Likes 0
Share VATSIM

Download

Looking for another format? Having issues loading an existing format? Contact us
Advertisement - Login to hide

Notes

Basic altitude profile: - Ascent Rate: 2500ft/min - Ascent Speed: 250kts - Cruise Altitude: 35000ft - Cruise Speed: 420kts - Descent Rate: 1500ft/min - Descent Speed: 250kts Options: - Use NATs: yes - Use PACOTS: yes - Use low airways: yes - Use high airways: yes

Route

LPLA SIPRU H125 LUKAL 4300N03500W 4500N04000W 4600N04500W 4700N05000W CYYT

ID Type Via Altitude Latitude Longitude Leg Dist Tot Dist Heading (true) Name
O LPLA APT - 0 ft / 0 m 38.76441˚ -27.09348˚ - 0 nm - LAJES
SIPRU FIX - 14,900 ft / 4,542 m 39.18000˚ -27.88944˚ 44 nm 44 nm 304° / 304° -
LUKIT FIX H125 (AWY-LO) 28,500 ft / 8,687 m 40.19694˚ -30.00000˚ 115 nm 159 nm 303° / 301° -
LUKAL FIX H125 (AWY-HI) 28,500 ft / 8,687 m 41.25306˚ -32.35583˚ 124 nm 284 nm 301° / 300° -
4300N03500W LATLON - 34,000 ft / 10,363 m 43.00000˚ -35.00000˚ 157 nm 442 nm 313° / 311° -
4500N04000W LATLON - 34,000 ft / 10,363 m 45.00000˚ -40.00000˚ 247 nm 689 nm 301° / 297° -
4600N04500W LATLON - 34,000 ft / 10,363 m 46.00000˚ -45.00000˚ 218 nm 908 nm 288° / 284° -
4700N05000W LATLON - 24,200 ft / 7,376 m 47.00000˚ -50.00000˚ 215 nm 1123 nm 288° / 284° -
O CYYT APT - 0 ft / 0 m 47.62013˚ -52.74683˚ 117 nm 1241 nm 289° / 287° ST JOHNS INTL

Altitude Profile

Advertisement - Login to hide

Weather


0- 5 10 15 20 25 30 35+ Temperature / ° C

Clouds and Precipitation
Forecast for 2017-12-15 18:00 UTC. Updated an hour ago

Ground ~20,000 ft ~40,000 ft Winds

LPLA

Details ICAO LPLA (TER)
Name LAJES
Region Portugal
Timezone Atlantic/Azores (UTC-1.0)
Stats Elevation 180 ft / 55 m (AMSL)
Location 38.764410° -27.093482°
Runways 1
Magnetic Variation 8.934° W

METAR

LPLA 151400Z /////KT 9999 FEW022 SCT030 20/15 Q1030

Decode

TAF

TAF LPLA 151100Z 1512/1612 30008KT 9999 SCT025= TAF LPPD 151110Z 1512/1612 32008KT 9999 FEW018 BKN030 PROB30 TEMPO 1512/1521 5000 DZ SCT005 BKN010 BECMG 1521/1524 VRB05KT

Decode

Departure Runways

ID Width Length Bearing (true) Bearing (mag) Surface Threshold Offset Overrun Length
15 197 ft / 60 m 10,869 ft / 3,313 m 140.81° 149.74° Asphalt 0 ft / 0 m 991 ft / 302 m
33 197 ft / 60 m 10,869 ft / 3,313 m 320.82° 329.75° Asphalt 0 ft / 0 m 1,040 ft / 317 m

CYYT

Details ICAO CYYT (YYT)
Name ST JOHNS INTL
Region Canada
Timezone America/St_Johns (UTC-3.5)
Stats Elevation 461 ft / 141 m (AMSL)
Location 47.620132° -52.746829°
Runways 3
Magnetic Variation 18.115° W

METAR

CYYT 151400Z 24024G36KT 15SM BKN025 00/M05 A2962 RMK SC5 SLP036

Decode

TAF

TAF CYYT 151138Z 1512/1612 24020G35KT P6SM BKN025 TEMPO 1512/1514 5SM -SN BKN020 FM151400 24025G35KT P6SM BKN030 FM151700 25025G40KT P6SM -SHSN BKN030 BECMG 1520/1522 24022G32KT FM160600 25015G25KT P6SM FEW030 RMK NXT FCST BY 151800Z

Decode

Destination Runways

ID Width Length Bearing (true) Bearing (mag) Surface Threshold Offset Overrun Length
02 98 ft / 30 m 4,863 ft / 1,482 m 356.21° 14.32° Asphalt 0 ft / 0 m 0 ft / 0 m
11 200 ft / 61 m 8,510 ft / 2,594 m 85.88° 103.99° Asphalt 0 ft / 0 m 0 ft / 0 m
16 200 ft / 61 m 7,010 ft / 2,137 m 139.21° 157.32° Asphalt 0 ft / 0 m 0 ft / 0 m
20 98 ft / 30 m 4,863 ft / 1,482 m 176.20° 194.31° Asphalt 0 ft / 0 m 0 ft / 0 m
29 200 ft / 61 m 8,510 ft / 2,594 m 265.91° 284.02° Asphalt 0 ft / 0 m 0 ft / 0 m
34 200 ft / 61 m 7,010 ft / 2,137 m 319.23° 337.34° Asphalt 0 ft / 0 m 0 ft / 0 m

Approach Navaids

Runway Type Ident Frequency Range Bearing (true) Bearing (mag) Slope Elevation
11 Localiser IMP 109.10 MHz 18 nm / 33 km 85.90° 104.01° - 461 ft / 141 m (AMSL)
11 Glidescope IMP 109.10 MHz 10 nm / 19 km 110.00° 128.11° 3.00° 461 ft / 141 m (AMSL)
16 Localiser IYT 110.70 MHz 18 nm / 33 km 139.19° 157.30° - 461 ft / 141 m (AMSL)
16 Glidescope IYT 110.70 MHz 10 nm / 19 km 160.00° 178.11° 3.00° 461 ft / 141 m (AMSL)
29 Localiser UYT 110.30 MHz 18 nm / 33 km 265.89° 284.00° - 461 ft / 141 m (AMSL)
29 Glidescope UYT 110.30 MHz 10 nm / 19 km 290.00° 308.11° 3.00° 461 ft / 141 m (AMSL)

Popular Alternatives